createdAt,value
2023-03-23T16:00:22.555Z,99953.53
2023-03-23T16:04:26.661Z,99950.25
2023-03-23T16:08:30.823Z,99940.97
2023-03-23T16:12:33.894Z,99942.03
2023-03-23T16:16:39.612Z,99945.84
2023-03-23T16:20:42.334Z,99945.31
2023-03-23T16:24:46.438Z,99941.78
2023-03-23T16:28:49.598Z,99953.47
2023-03-23T16:32:55.554Z,99948.31
2023-03-23T16:37:00.356Z,99949.97
2023-03-23T16:41:04.586Z,99937.66
2023-03-23T16:45:08.544Z,99951.88
2023-03-23T16:49:11.220Z,99961.19
2023-03-23T16:53:14.070Z,99952.47
2023-03-23T16:57:18.135Z,99945.13
2023-03-23T17:01:20.932Z,99950.06
2023-03-23T17:05:25.891Z,99969.72
2023-03-23T17:09:29.235Z,99976.31
2023-03-23T17:13:33.286Z,99989.38
2023-03-23T17:17:36.234Z,99994.59
2023-03-23T17:21:41.374Z,99985.03
2023-03-23T17:25:45.747Z,99982.88
2023-03-23T17:29:50.487Z,99978.22
2023-03-23T17:33:53.730Z,99977.94
2023-03-23T17:37:56.446Z,99970.84
2023-03-23T17:41:59.257Z,99970.84
2023-03-23T17:46:03.322Z,99968.13
2023-03-23T17:50:11.659Z,99979.56
2023-03-23T17:54:15.500Z,99975.47
2023-03-23T17:58:18.543Z,99979.00
2023-03-23T18:02:22.636Z,99970.56
2023-03-23T18:06:25.462Z,99958.03
2023-03-23T18:10:28.141Z,99962.38
2023-03-23T18:14:30.850Z,99959.66
2023-03-23T18:18:36.117Z,99941.09
2023-03-23T18:22:39.090Z,99955.28
2023-03-23T18:26:42.411Z,99942.19
2023-03-23T18:30:49.032Z,99945.47
2023-03-23T18:34:53.131Z,99946.81
2023-03-23T18:38:57.832Z,99956.91
2023-03-23T18:43:00.830Z,99931.81
2023-03-23T18:47:03.671Z,99923.38
2023-03-23T18:51:08.924Z,99926.38
2023-03-23T18:55:11.901Z,99927.19
2023-03-23T18:59:14.551Z,99904.84
2023-03-23T19:03:17.410Z,99905.13
2023-03-23T19:07:21.570Z,99894.75
2023-03-23T19:11:26.992Z,99893.69
2023-03-23T19:15:29.931Z,99894.75
2023-03-23T19:19:32.832Z,99896.16
2023-03-23T19:23:36.938Z,99904.56
2023-03-23T19:28:01.380Z,99900.50
2023-03-23T19:32:02.903Z,99883.59
2023-03-23T19:36:11.736Z,99874.31
2023-03-23T19:40:35.510Z,99873.50
2023-03-23T19:44:41.197Z,99857.44
2023-03-23T19:48:46.151Z,99847.34
2023-03-23T19:52:49.300Z,99855.50
2023-03-23T19:56:53.483Z,99854.97
2023-03-23T20:00:56.588Z,99848.13
2023-03-23T20:04:59.619Z,99845.69
2023-03-23T20:09:03.081Z,99831.78
2023-03-23T20:13:07.621Z,99828.22
2023-03-23T20:17:11.723Z,99824.66
2023-03-23T20:21:19.640Z,99817.28
2023-03-23T20:25:22.979Z,99819.72
2023-03-23T20:29:27.008Z,99811.81
2023-03-23T20:33:32.010Z,99802.81
2023-03-23T20:37:35.447Z,99808.50
2023-03-23T20:41:40.212Z,99801.16
2023-03-23T20:45:44.430Z,99798.41
2023-03-23T20:49:53.038Z,99792.97
2023-03-23T20:53:56.522Z,99797.31
2023-03-23T20:57:59.207Z,99776.59
2023-03-23T21:02:04.693Z,99783.97
2023-03-23T21:06:07.975Z,99777.16
2023-03-23T21:10:10.645Z,99774.16
2023-03-23T21:14:14.327Z,99766.50
2023-03-23T21:18:18.373Z,99752.91
2023-03-23T21:22:21.428Z,99758.59
2023-03-23T21:26:26.222Z,99755.34
2023-03-23T21:30:29.411Z,99746.59
2023-03-23T21:34:33.515Z,99749.06
2023-03-23T21:38:38.168Z,99740.31
2023-03-23T21:42:41.999Z,99744.16
2023-03-23T21:46:45.500Z,99737.06
2023-03-23T21:50:49.847Z,99741.72
2023-03-23T21:54:53.454Z,99734.41
2023-03-23T21:58:57.193Z,99717.47
2023-03-23T22:03:00.016Z,99714.81
2023-03-23T22:07:04.936Z,99724.63
2023-03-23T22:11:12.018Z,99712.94
2023-03-23T22:15:15.716Z,99712.66
2023-03-23T22:19:18.601Z,99706.13
2023-03-23T22:23:22.734Z,99704.50
2023-03-23T22:27:25.665Z,99692.25
2023-03-23T22:31:30.643Z,99688.19
2023-03-23T22:35:34.189Z,99679.50
2023-03-23T22:39:38.721Z,99672.13
2023-03-23T22:43:41.541Z,99670.22
2023-03-23T22:47:44.543Z,99650.09
2023-03-23T22:51:47.754Z,99659.88
2023-03-23T22:55:54.382Z,99641.63
2023-03-23T22:59:57.315Z,99645.19
2023-03-23T23:04:00.226Z,99647.66
2023-03-23T23:08:03.030Z,99633.75
2023-03-23T23:12:07.647Z,99625.03
2023-03-23T23:16:11.935Z,99623.97
2023-03-23T23:20:15.543Z,99608.19
2023-03-23T23:24:18.367Z,99600.25
2023-03-23T23:28:23.443Z,99600.53
2023-03-23T23:32:27.001Z,99591.03
2023-03-23T23:36:32.063Z,99584.78
2023-03-23T23:40:35.251Z,99578.50
2023-03-23T23:44:39.971Z,99573.31
2023-03-23T23:48:42.700Z,99569.53
2023-03-23T23:52:45.687Z,99560.25
2023-03-23T23:56:48.563Z,99552.09
